sensor_id;sensor_type;location;lat;lon;timestamp;temperature;humidity
25983;DHT22;13773;48.868;10.730;2023-07-31T00:00:28;13.10;99.90
25983;DHT22;13773;48.868;10.730;2023-07-31T00:02:54;13.10;99.90
25983;DHT22;13773;48.868;10.730;2023-07-31T00:05:20;13.00;99.90
25983;DHT22;13773;48.868;10.730;2023-07-31T00:07:46;13.00;99.90
25983;DHT22;13773;48.868;10.730;2023-07-31T00:10:11;12.90;99.90
25983;DHT22;13773;48.868;10.730;2023-07-31T00:12:42;13.00;99.90
25983;DHT22;13773;48.868;10.730;2023-07-31T00:15:08;13.10;99.90
25983;DHT22;13773;48.868;10.730;2023-07-31T00:17:34;13.10;99.90
25983;DHT22;13773;48.868;10.730;2023-07-31T00:20:00;13.10;99.90
25983;DHT22;13773;48.868;10.730;2023-07-31T00:22:25;13.10;99.90
25983;DHT22;13773;48.868;10.730;2023-07-31T00:24:51;13.10;99.90
25983;DHT22;13773;48.868;10.730;2023-07-31T00:27:17;13.20;99.90
25983;DHT22;13773;48.868;10.730;2023-07-31T00:29:42;13.20;99.90
25983;DHT22;13773;48.868;10.730;2023-07-31T00:32:08;13.10;99.90
25983;DHT22;13773;48.868;10.730;2023-07-31T00:34:34;13.00;99.90
25983;DHT22;13773;48.868;10.730;2023-07-31T00:36:59;13.00;99.90
25983;DHT22;13773;48.868;10.730;2023-07-31T00:39:25;12.90;99.90
25983;DHT22;13773;48.868;10.730;2023-07-31T00:41:51;12.90;99.90
25983;DHT22;13773;48.868;10.730;2023-07-31T00:44:16;12.90;99.90
25983;DHT22;13773;48.868;10.730;2023-07-31T00:46:42;12.90;99.90
25983;DHT22;13773;48.868;10.730;2023-07-31T00:49:08;12.90;99.90
25983;DHT22;13773;48.868;10.730;2023-07-31T00:51:35;12.90;99.90
25983;DHT22;13773;48.868;10.730;2023-07-31T00:54:01;13.00;99.90
25983;DHT22;13773;48.868;10.730;2023-07-31T00:56:28;13.10;99.90
25983;DHT22;13773;48.868;10.730;2023-07-31T00:58:55;13.00;99.90
25983;DHT22;13773;48.868;10.730;2023-07-31T01:01:21;13.00;99.90
25983;DHT22;13773;48.868;10.730;2023-07-31T01:03:48;13.10;99.90
25983;DHT22;13773;48.868;10.730;2023-07-31T01:11:46;12.70;99.90
25983;DHT22;13773;48.868;10.730;2023-07-31T01:14:13;12.60;99.90
25983;DHT22;13773;48.868;10.730;2023-07-31T01:16:39;12.50;99.90
25983;DHT22;13773;48.868;10.730;2023-07-31T01:19:05;12.50;99.90
25983;DHT22;13773;48.868;10.730;2023-07-31T01:26:39;12.40;99.90
25983;DHT22;13773;48.868;10.730;2023-07-31T01:31:50;12.40;99.90
25983;DHT22;13773;48.868;10.730;2023-07-31T01:34:17;12.40;99.90
25983;DHT22;13773;48.868;10.730;2023-07-31T01:36:44;12.50;99.90
25983;DHT22;13773;48.868;10.730;2023-07-31T01:39:10;12.50;99.90
25983;DHT22;13773;48.868;10.730;2023-07-31T01:41:35;12.60;99.90
25983;DHT22;13773;48.868;10.730;2023-07-31T01:44:01;12.60;99.90
25983;DHT22;13773;48.868;10.730;2023-07-31T01:46:27;12.70;99.90
25983;DHT22;13773;48.868;10.730;2023-07-31T01:48:52;12.70;99.90
25983;DHT22;13773;48.868;10.730;2023-07-31T01:51:18;12.80;99.90
25983;DHT22;13773;48.868;10.730;2023-07-31T01:53:44;12.70;99.90
25983;DHT22;13773;48.868;10.730;2023-07-31T01:56:09;12.70;99.90
25983;DHT22;13773;48.868;10.730;2023-07-31T01:58:35;12.70;99.90
25983;DHT22;13773;48.868;10.730;2023-07-31T02:01:01;12.70;99.90
25983;DHT22;13773;48.868;10.730;2023-07-31T02:03:26;12.80;99.90
25983;DHT22;13773;48.868;10.730;2023-07-31T02:05:54;12.70;99.90
25983;DHT22;13773;48.868;10.730;2023-07-31T02:08:19;12.70;99.90
25983;DHT22;13773;48.868;10.730;2023-07-31T02:10:45;12.80;99.90
25983;DHT22;13773;48.868;10.730;2023-07-31T02:13:11;12.80;99.90
25983;DHT22;13773;48.868;10.730;2023-07-31T02:15:37;12.90;99.90
25983;DHT22;13773;48.868;10.730;2023-07-31T02:18:03;15.70;99.90
25983;DHT22;13773;48.868;10.730;2023-07-31T02:20:28;12.90;99.90
25983;DHT22;13773;48.868;10.730;2023-07-31T02:22:54;12.70;99.90
25983;DHT22;13773;48.868;10.730;2023-07-31T02:25:20;12.60;99.90
25983;DHT22;13773;48.868;10.730;2023-07-31T02:27:45;12.50;99.90
25983;DHT22;13773;48.868;10.730;2023-07-31T02:30:11;12.40;99.90
25983;DHT22;13773;48.868;10.730;2023-07-31T02:32:37;12.40;99.90
25983;DHT22;13773;48.868;10.730;2023-07-31T02:35:03;12.30;99.90
25983;DHT22;13773;48.868;10.730;2023-07-31T02:37:28;12.30;99.90
25983;DHT22;13773;48.868;10.730;2023-07-31T02:39:55;12.30;99.90
25983;DHT22;13773;48.868;10.730;2023-07-31T02:42:20;11.20;99.90
25983;DHT22;13773;48.868;10.730;2023-07-31T02:44:46;12.30;99.90
25983;DHT22;13773;48.868;10.730;2023-07-31T02:47:12;12.30;99.90
25983;DHT22;13773;48.868;10.730;2023-07-31T02:49:37;12.40;99.90
25983;DHT22;13773;48.868;10.730;2023-07-31T02:52:03;12.40;99.90
25983;DHT22;13773;48.868;10.730;2023-07-31T02:54:29;12.30;99.90
25983;DHT22;13773;48.868;10.730;2023-07-31T02:56:55;12.30;99.90
25983;DHT22;13773;48.868;10.730;2023-07-31T02:59:21;12.20;99.90
25983;DHT22;13773;48.868;10.730;2023-07-31T03:01:46;12.20;99.90
25983;DHT22;13773;48.868;10.730;2023-07-31T03:04:12;12.20;99.90
25983;DHT22;13773;48.868;10.730;2023-07-31T03:06:38;12.20;99.90
25983;DHT22;13773;48.868;10.730;2023-07-31T03:09:03;12.20;99.90
25983;DHT22;13773;48.868;10.730;2023-07-31T03:11:29;12.20;99.90
25983;DHT22;13773;48.868;10.730;2023-07-31T03:13:54;12.00;99.90
25983;DHT22;13773;48.868;10.730;2023-07-31T03:16:20;12.00;99.90
25983;DHT22;13773;48.868;10.730;2023-07-31T03:18:46;12.10;99.90
25983;DHT22;13773;48.868;10.730;2023-07-31T03:21:12;11.90;99.90
25983;DHT22;13773;48.868;10.730;2023-07-31T03:23:38;12.00;99.90
25983;DHT22;13773;48.868;10.730;2023-07-31T03:26:06;12.00;99.90
25983;DHT22;13773;48.868;10.730;2023-07-31T03:28:33;11.90;99.90
25983;DHT22;13773;48.868;10.730;2023-07-31T03:30:59;11.90;99.90
25983;DHT22;13773;48.868;10.730;2023-07-31T03:33:25;12.00;99.90
25983;DHT22;13773;48.868;10.730;2023-07-31T03:35:51;12.00;99.90
25983;DHT22;13773;48.868;10.730;2023-07-31T03:38:17;11.90;99.90
25983;DHT22;13773;48.868;10.730;2023-07-31T03:40:43;10.90;99.90
25983;DHT22;13773;48.868;10.730;2023-07-31T03:43:08;11.90;99.90
25983;DHT22;13773;48.868;10.730;2023-07-31T03:45:34;11.90;99.90
25983;DHT22;13773;48.868;10.730;2023-07-31T03:48:00;12.00;99.90
25983;DHT22;13773;48.868;10.730;2023-07-31T03:50:26;12.00;99.90
25983;DHT22;13773;48.868;10.730;2023-07-31T03:52:52;12.00;99.90
25983;DHT22;13773;48.868;10.730;2023-07-31T03:55:18;12.10;99.90
25983;DHT22;13773;48.868;10.730;2023-07-31T03:57:43;12.20;99.90
25983;DHT22;13773;48.868;10.730;2023-07-31T04:00:10;12.40;99.90
25983;DHT22;13773;48.868;10.730;2023-07-31T04:02:35;12.50;99.90
25983;DHT22;13773;48.868;10.730;2023-07-31T04:05:01;12.50;99.90
25983;DHT22;13773;48.868;10.730;2023-07-31T04:07:27;12.70;99.90
25983;DHT22;13773;48.868;10.730;2023-07-31T04:09:53;12.80;99.90
25983;DHT22;13773;48.868;10.730;2023-07-31T04:12:18;12.90;99.90
25983;DHT22;13773;48.868;10.730;2023-07-31T04:14:44;13.00;99.90
25983;DHT22;13773;48.868;10.730;2023-07-31T04:17:10;13.10;99.90
25983;DHT22;13773;48.868;10.730;2023-07-31T04:19:35;13.10;99.90
25983;DHT22;13773;48.868;10.730;2023-07-31T04:22:01;13.10;99.90
25983;DHT22;13773;48.868;10.730;2023-07-31T04:24:26;13.10;99.90
25983;DHT22;13773;48.868;10.730;2023-07-31T04:26:53;13.10;99.90
25983;DHT22;13773;48.868;10.730;2023-07-31T04:29:19;13.10;99.90
25983;DHT22;13773;48.868;10.730;2023-07-31T04:31:45;13.20;99.90
25983;DHT22;13773;48.868;10.730;2023-07-31T04:34:10;13.30;99.90
25983;DHT22;13773;48.868;10.730;2023-07-31T04:36:37;13.40;99.90
25983;DHT22;13773;48.868;10.730;2023-07-31T04:39:03;13.50;99.90
25983;DHT22;13773;48.868;10.730;2023-07-31T04:41:28;13.60;99.90
25983;DHT22;13773;48.868;10.730;2023-07-31T04:43:54;13.70;99.90
25983;DHT22;13773;48.868;10.730;2023-07-31T04:46:20;13.60;99.90
25983;DHT22;13773;48.868;10.730;2023-07-31T04:48:45;13.80;99.90
25983;DHT22;13773;48.868;10.730;2023-07-31T04:51:11;13.80;99.90
25983;DHT22;13773;48.868;10.730;2023-07-31T04:53:37;13.80;99.90
25983;DHT22;13773;48.868;10.730;2023-07-31T04:56:02;13.90;99.90
25983;DHT22;13773;48.868;10.730;2023-07-31T04:58:28;14.00;99.90
25983;DHT22;13773;48.868;10.730;2023-07-31T05:00:54;14.10;99.90
25983;DHT22;13773;48.868;10.730;2023-07-31T05:03:20;14.30;99.90
25983;DHT22;13773;48.868;10.730;2023-07-31T05:05:45;14.40;99.90
25983;DHT22;13773;48.868;10.730;2023-07-31T05:08:11;14.50;99.90
25983;DHT22;13773;48.868;10.730;2023-07-31T05:10:37;14.70;99.90
25983;DHT22;13773;48.868;10.730;2023-07-31T05:13:03;14.80;99.90
25983;DHT22;13773;48.868;10.730;2023-07-31T05:15:29;14.80;99.90
25983;DHT22;13773;48.868;10.730;2023-07-31T05:17:54;14.90;99.90
25983;DHT22;13773;48.868;10.730;2023-07-31T05:20:21;15.10;99.90
25983;DHT22;13773;48.868;10.730;2023-07-31T05:22:46;15.20;99.90
25983;DHT22;13773;48.868;10.730;2023-07-31T05:25:12;15.40;99.90
25983;DHT22;13773;48.868;10.730;2023-07-31T05:27:38;15.70;99.90
25983;DHT22;13773;48.868;10.730;2023-07-31T05:30:04;15.80;99.90
25983;DHT22;13773;48.868;10.730;2023-07-31T05:32:30;15.90;99.90
25983;DHT22;13773;48.868;10.730;2023-07-31T05:34:56;16.20;99.90
25983;DHT22;13773;48.868;10.730;2023-07-31T05:37:22;16.40;99.90
25983;DHT22;13773;48.868;10.730;2023-07-31T05:39:48;16.50;99.90
25983;DHT22;13773;48.868;10.730;2023-07-31T05:42:14;16.50;99.90
25983;DHT22;13773;48.868;10.730;2023-07-31T05:44:39;16.50;99.90
25983;DHT22;13773;48.868;10.730;2023-07-31T05:47:05;16.50;99.90
25983;DHT22;13773;48.868;10.730;2023-07-31T05:49:31;16.50;99.90
25983;DHT22;13773;48.868;10.730;2023-07-31T05:51:57;16.60;99.90
25983;DHT22;13773;48.868;10.730;2023-07-31T05:54:22;16.70;99.90
25983;DHT22;13773;48.868;10.730;2023-07-31T05:56:48;16.70;99.90
25983;DHT22;13773;48.868;10.730;2023-07-31T05:59:14;16.90;99.90
25983;DHT22;13773;48.868;10.730;2023-07-31T06:01:39;16.90;99.90
25983;DHT22;13773;48.868;10.730;2023-07-31T06:04:05;16.90;99.90
25983;DHT22;13773;48.868;10.730;2023-07-31T06:06:31;16.80;99.90
25983;DHT22;13773;48.868;10.730;2023-07-31T06:08:57;16.80;99.90
25983;DHT22;13773;48.868;10.730;2023-07-31T06:11:22;16.90;99.90
25983;DHT22;13773;48.868;10.730;2023-07-31T06:13:48;16.90;99.90
25983;DHT22;13773;48.868;10.730;2023-07-31T06:16:15;16.90;99.90
25983;DHT22;13773;48.868;10.730;2023-07-31T06:18:42;17.00;99.90
25983;DHT22;13773;48.868;10.730;2023-07-31T06:21:09;17.10;99.90
25983;DHT22;13773;48.868;10.730;2023-07-31T06:23:35;17.10;99.90
25983;DHT22;13773;48.868;10.730;2023-07-31T06:26:01;17.20;99.90
25983;DHT22;13773;48.868;10.730;2023-07-31T06:28:30;17.30;99.90
25983;DHT22;13773;48.868;10.730;2023-07-31T06:30:57;17.40;99.90
25983;DHT22;13773;48.868;10.730;2023-07-31T06:33:23;17.30;99.90
25983;DHT22;13773;48.868;10.730;2023-07-31T06:35:48;17.20;99.90
25983;DHT22;13773;48.868;10.730;2023-07-31T06:38:14;17.10;99.90
25983;DHT22;13773;48.868;10.730;2023-07-31T06:40:40;17.10;99.90
25983;DHT22;13773;48.868;10.730;2023-07-31T06:43:06;17.10;99.90
25983;DHT22;13773;48.868;10.730;2023-07-31T06:45:37;17.00;99.90
25983;DHT22;13773;48.868;10.730;2023-07-31T06:48:03;16.90;99.90
25983;DHT22;13773;48.868;10.730;2023-07-31T06:50:33;16.90;99.90
25983;DHT22;13773;48.868;10.730;2023-07-31T06:52:58;17.00;99.90
25983;DHT22;13773;48.868;10.730;2023-07-31T06:55:26;17.10;99.90
25983;DHT22;13773;48.868;10.730;2023-07-31T06:57:54;17.10;99.90
25983;DHT22;13773;48.868;10.730;2023-07-31T07:00:22;17.20;99.90
25983;DHT22;13773;48.868;10.730;2023-07-31T07:02:48;17.30;99.90
25983;DHT22;13773;48.868;10.730;2023-07-31T07:05:14;17.30;99.90
25983;DHT22;13773;48.868;10.730;2023-07-31T07:07:40;17.50;99.90
25983;DHT22;13773;48.868;10.730;2023-07-31T07:10:07;17.70;99.90
25983;DHT22;13773;48.868;10.730;2023-07-31T07:12:33;17.80;99.90
25983;DHT22;13773;48.868;10.730;2023-07-31T07:14:59;17.90;99.90
25983;DHT22;13773;48.868;10.730;2023-07-31T07:17:26;18.00;99.90
25983;DHT22;13773;48.868;10.730;2023-07-31T07:19:52;17.80;99.90
25983;DHT22;13773;48.868;10.730;2023-07-31T07:22:18;18.00;99.90
25983;DHT22;13773;48.868;10.730;2023-07-31T07:24:44;18.00;99.90
25983;DHT22;13773;48.868;10.730;2023-07-31T07:27:10;18.40;99.90
25983;DHT22;13773;48.868;10.730;2023-07-31T07:29:37;18.70;99.90
25983;DHT22;13773;48.868;10.730;2023-07-31T07:32:03;18.70;99.90
25983;DHT22;13773;48.868;10.730;2023-07-31T07:34:29;18.80;99.90
25983;DHT22;13773;48.868;10.730;2023-07-31T07:36:55;18.80;99.90
25983;DHT22;13773;48.868;10.730;2023-07-31T07:39:20;18.90;99.90
25983;DHT22;13773;48.868;10.730;2023-07-31T07:41:47;19.10;99.90
25983;DHT22;13773;48.868;10.730;2023-07-31T07:44:13;19.20;99.90
25983;DHT22;13773;48.868;10.730;2023-07-31T07:46:39;19.10;99.90
25983;DHT22;13773;48.868;10.730;2023-07-31T07:49:05;19.30;99.90
25983;DHT22;13773;48.868;10.730;2023-07-31T07:51:31;19.40;99.90
25983;DHT22;13773;48.868;10.730;2023-07-31T07:54:00;19.60;99.90
25983;DHT22;13773;48.868;10.730;2023-07-31T07:56:27;19.90;99.90
25983;DHT22;13773;48.868;10.730;2023-07-31T07:58:53;20.10;99.90
25983;DHT22;13773;48.868;10.730;2023-07-31T08:01:19;20.10;99.90
25983;DHT22;13773;48.868;10.730;2023-07-31T08:03:45;20.10;99.90
25983;DHT22;13773;48.868;10.730;2023-07-31T08:06:11;20.10;99.90
25983;DHT22;13773;48.868;10.730;2023-07-31T08:08:37;20.20;99.90
25983;DHT22;13773;48.868;10.730;2023-07-31T08:11:03;20.10;99.90
25983;DHT22;13773;48.868;10.730;2023-07-31T08:13:28;19.80;99.90
25983;DHT22;13773;48.868;10.730;2023-07-31T08:15:54;19.80;99.90
25983;DHT22;13773;48.868;10.730;2023-07-31T08:18:20;19.60;99.90
25983;DHT22;13773;48.868;10.730;2023-07-31T08:20:46;19.60;99.90
25983;DHT22;13773;48.868;10.730;2023-07-31T08:23:12;19.80;99.90
25983;DHT22;13773;48.868;10.730;2023-07-31T08:25:38;19.60;99.90
25983;DHT22;13773;48.868;10.730;2023-07-31T08:28:05;19.60;99.90
25983;DHT22;13773;48.868;10.730;2023-07-31T08:30:31;19.70;99.90
25983;DHT22;13773;48.868;10.730;2023-07-31T08:32:57;19.70;99.90
25983;DHT22;13773;48.868;10.730;2023-07-31T08:35:25;19.90;99.90
25983;DHT22;13773;48.868;10.730;2023-07-31T08:37:51;19.80;99.90
25983;DHT22;13773;48.868;10.730;2023-07-31T08:40:17;19.90;99.90
25983;DHT22;13773;48.868;10.730;2023-07-31T08:42:48;20.00;99.90
25983;DHT22;13773;48.868;10.730;2023-07-31T08:45:15;20.10;99.90
25983;DHT22;13773;48.868;10.730;2023-07-31T08:47:46;19.90;99.90
25983;DHT22;13773;48.868;10.730;2023-07-31T08:50:13;19.70;99.90
25983;DHT22;13773;48.868;10.730;2023-07-31T08:52:39;19.90;99.90
25983;DHT22;13773;48.868;10.730;2023-07-31T08:55:06;20.10;99.90
25983;DHT22;13773;48.868;10.730;2023-07-31T08:57:35;20.50;99.90
25983;DHT22;13773;48.868;10.730;2023-07-31T09:00:02;20.60;99.90
25983;DHT22;13773;48.868;10.730;2023-07-31T09:03:03;21.10;99.90
25983;DHT22;13773;48.868;10.730;2023-07-31T09:05:32;21.80;99.90
25983;DHT22;13773;48.868;10.730;2023-07-31T09:08:00;21.70;99.90
25983;DHT22;13773;48.868;10.730;2023-07-31T09:10:27;21.40;99.90
25983;DHT22;13773;48.868;10.730;2023-07-31T09:12:53;21.60;99.90
25983;DHT22;13773;48.868;10.730;2023-07-31T09:15:19;21.50;99.90
25983;DHT22;13773;48.868;10.730;2023-07-31T09:17:44;21.30;99.90
25983;DHT22;13773;48.868;10.730;2023-07-31T09:20:14;21.00;99.90
25983;DHT22;13773;48.868;10.730;2023-07-31T09:22:40;20.90;99.90
25983;DHT22;13773;48.868;10.730;2023-07-31T09:27:52;21.60;99.90
25983;DHT22;13773;48.868;10.730;2023-07-31T09:30:18;21.70;99.90
25983;DHT22;13773;48.868;10.730;2023-07-31T09:32:45;22.00;99.90
25983;DHT22;13773;48.868;10.730;2023-07-31T09:37:49;22.10;99.90
25983;DHT22;13773;48.868;10.730;2023-07-31T09:40:43;22.30;99.90
25983;DHT22;13773;48.868;10.730;2023-07-31T09:43:11;22.40;99.90
25983;DHT22;13773;48.868;10.730;2023-07-31T09:45:40;22.90;99.90
25983;DHT22;13773;48.868;10.730;2023-07-31T09:48:08;23.20;99.90
25983;DHT22;13773;48.868;10.730;2023-07-31T09:50:37;22.50;99.90
25983;DHT22;13773;48.868;10.730;2023-07-31T09:53:03;21.90;99.90
25983;DHT22;13773;48.868;10.730;2023-07-31T09:55:29;21.60;99.90
25983;DHT22;13773;48.868;10.730;2023-07-31T09:57:57;21.60;99.90
25983;DHT22;13773;48.868;10.730;2023-07-31T10:00:23;22.80;99.90
25983;DHT22;13773;48.868;10.730;2023-07-31T10:02:53;21.70;99.90
25983;DHT22;13773;48.868;10.730;2023-07-31T10:05:19;22.00;99.90
25983;DHT22;13773;48.868;10.730;2023-07-31T10:07:54;21.80;99.90
25983;DHT22;13773;48.868;10.730;2023-07-31T10:10:21;22.00;99.90
25983;DHT22;13773;48.868;10.730;2023-07-31T10:12:49;22.10;99.90
25983;DHT22;13773;48.868;10.730;2023-07-31T10:15:18;22.30;99.90
25983;DHT22;13773;48.868;10.730;2023-07-31T10:17:47;22.40;99.90
25983;DHT22;13773;48.868;10.730;2023-07-31T10:20:14;22.90;99.90
25983;DHT22;13773;48.868;10.730;2023-07-31T10:22:42;23.10;99.90
25983;DHT22;13773;48.868;10.730;2023-07-31T10:25:08;23.40;99.90
25983;DHT22;13773;48.868;10.730;2023-07-31T10:27:36;23.20;99.90
25983;DHT22;13773;48.868;10.730;2023-07-31T10:30:08;22.90;99.90
25983;DHT22;13773;48.868;10.730;2023-07-31T10:32:35;22.50;99.90
25983;DHT22;13773;48.868;10.730;2023-07-31T10:35:06;22.60;99.90
25983;DHT22;13773;48.868;10.730;2023-07-31T10:37:40;22.60;99.90
25983;DHT22;13773;48.868;10.730;2023-07-31T10:40:13;22.60;99.90
25983;DHT22;13773;48.868;10.730;2023-07-31T10:42:51;22.70;99.90
25983;DHT22;13773;48.868;10.730;2023-07-31T10:48:04;23.10;99.90
25983;DHT22;13773;48.868;10.730;2023-07-31T10:50:32;22.70;99.90
25983;DHT22;13773;48.868;10.730;2023-07-31T10:52:59;22.90;99.90
25983;DHT22;13773;48.868;10.730;2023-07-31T10:55:33;23.00;99.90
25983;DHT22;13773;48.868;10.730;2023-07-31T11:00:31;23.30;99.90
25983;DHT22;13773;48.868;10.730;2023-07-31T11:03:05;23.40;99.90
25983;DHT22;13773;48.868;10.730;2023-07-31T11:08:27;23.80;99.90
25983;DHT22;13773;48.868;10.730;2023-07-31T11:13:29;23.10;99.90
25983;DHT22;13773;48.868;10.730;2023-07-31T11:15:54;23.30;99.90
25983;DHT22;13773;48.868;10.730;2023-07-31T11:18:20;23.40;99.90
25983;DHT22;13773;48.868;10.730;2023-07-31T11:20:46;23.60;99.90
25983;DHT22;13773;48.868;10.730;2023-07-31T11:23:12;23.70;99.90
25983;DHT22;13773;48.868;10.730;2023-07-31T11:25:39;23.90;99.90
25983;DHT22;13773;48.868;10.730;2023-07-31T11:28:14;24.10;99.90
25983;DHT22;13773;48.868;10.730;2023-07-31T11:30:41;23.60;99.90
25983;DHT22;13773;48.868;10.730;2023-07-31T11:33:08;23.60;99.90
25983;DHT22;13773;48.868;10.730;2023-07-31T11:35:36;23.80;99.90
25983;DHT22;13773;48.868;10.730;2023-07-31T11:38:02;23.60;99.90
25983;DHT22;13773;48.868;10.730;2023-07-31T11:40:28;23.60;99.90
25983;DHT22;13773;48.868;10.730;2023-07-31T11:43:04;23.70;99.90
25983;DHT22;13773;48.868;10.730;2023-07-31T11:45:30;23.40;99.90
25983;DHT22;13773;48.868;10.730;2023-07-31T11:47:56;23.30;99.90
25983;DHT22;13773;48.868;10.730;2023-07-31T11:50:23;23.20;99.90
25983;DHT22;13773;48.868;10.730;2023-07-31T11:52:59;23.30;99.90
25983;DHT22;13773;48.868;10.730;2023-07-31T11:55:26;23.30;99.90
25983;DHT22;13773;48.868;10.730;2023-07-31T11:57:53;23.40;99.90
25983;DHT22;13773;48.868;10.730;2023-07-31T12:00:19;23.30;99.90
25983;DHT22;13773;48.868;10.730;2023-07-31T12:02:45;23.10;99.90
25983;DHT22;13773;48.868;10.730;2023-07-31T12:05:14;24.30;99.90
25983;DHT22;13773;48.868;10.730;2023-07-31T12:07:47;23.50;99.90
25983;DHT22;13773;48.868;10.730;2023-07-31T12:10:30;24.10;99.90
25983;DHT22;13773;48.868;10.730;2023-07-31T12:15:29;24.50;99.90
25983;DHT22;13773;48.868;10.730;2023-07-31T12:17:56;24.80;99.90
25983;DHT22;13773;48.868;10.730;2023-07-31T12:20:22;24.60;99.90
25983;DHT22;13773;48.868;10.730;2023-07-31T12:22:48;24.80;99.90
25983;DHT22;13773;48.868;10.730;2023-07-31T12:25:16;24.30;99.90
25983;DHT22;13773;48.868;10.730;2023-07-31T12:27:45;23.90;99.90
25983;DHT22;13773;48.868;10.730;2023-07-31T12:30:31;24.00;99.90
25983;DHT22;13773;48.868;10.730;2023-07-31T12:32:57;24.10;99.90
25983;DHT22;13773;48.868;10.730;2023-07-31T12:35:23;24.20;99.90
25983;DHT22;13773;48.868;10.730;2023-07-31T12:37:49;24.50;99.90
25983;DHT22;13773;48.868;10.730;2023-07-31T12:40:14;23.90;99.90
25983;DHT22;13773;48.868;10.730;2023-07-31T12:42:41;23.70;99.90
25983;DHT22;13773;48.868;10.730;2023-07-31T12:45:07;23.80;99.90
25983;DHT22;13773;48.868;10.730;2023-07-31T12:47:33;23.80;99.90
25983;DHT22;13773;48.868;10.730;2023-07-31T12:49:58;23.90;99.90
25983;DHT22;13773;48.868;10.730;2023-07-31T12:52:24;23.90;99.90
25983;DHT22;13773;48.868;10.730;2023-07-31T12:54:50;23.80;99.90
25983;DHT22;13773;48.868;10.730;2023-07-31T12:57:16;23.90;99.90
25983;DHT22;13773;48.868;10.730;2023-07-31T12:59:42;23.90;99.90
25983;DHT22;13773;48.868;10.730;2023-07-31T13:02:08;23.80;99.90
25983;DHT22;13773;48.868;10.730;2023-07-31T13:04:34;23.90;99.90
25983;DHT22;13773;48.868;10.730;2023-07-31T13:07:00;23.90;99.90
25983;DHT22;13773;48.868;10.730;2023-07-31T13:09:25;23.80;99.90
25983;DHT22;13773;48.868;10.730;2023-07-31T13:11:51;24.30;99.90
25983;DHT22;13773;48.868;10.730;2023-07-31T13:14:17;24.50;99.90
25983;DHT22;13773;48.868;10.730;2023-07-31T13:16:43;24.80;99.90
25983;DHT22;13773;48.868;10.730;2023-07-31T13:19:08;24.80;99.90
25983;DHT22;13773;48.868;10.730;2023-07-31T13:21:34;24.40;99.90
25983;DHT22;13773;48.868;10.730;2023-07-31T13:24:02;24.50;99.90
25983;DHT22;13773;48.868;10.730;2023-07-31T13:26:28;24.50;99.90
25983;DHT22;13773;48.868;10.730;2023-07-31T13:28:53;24.50;99.90
25983;DHT22;13773;48.868;10.730;2023-07-31T13:31:19;24.60;99.90
25983;DHT22;13773;48.868;10.730;2023-07-31T13:33:44;24.90;99.90
25983;DHT22;13773;48.868;10.730;2023-07-31T13:36:10;24.90;99.90
25983;DHT22;13773;48.868;10.730;2023-07-31T13:38:37;24.90;99.90
25983;DHT22;13773;48.868;10.730;2023-07-31T13:41:02;24.90;99.90
25983;DHT22;13773;48.868;10.730;2023-07-31T13:43:28;25.10;99.90
25983;DHT22;13773;48.868;10.730;2023-07-31T13:45:54;25.00;99.90
25983;DHT22;13773;48.868;10.730;2023-07-31T13:48:20;24.30;99.90
25983;DHT22;13773;48.868;10.730;2023-07-31T13:50:45;24.10;99.90
25983;DHT22;13773;48.868;10.730;2023-07-31T13:53:11;24.40;99.90
25983;DHT22;13773;48.868;10.730;2023-07-31T13:55:37;24.90;99.90
25983;DHT22;13773;48.868;10.730;2023-07-31T13:58:03;24.90;99.90
25983;DHT22;13773;48.868;10.730;2023-07-31T14:00:28;24.80;99.90
25983;DHT22;13773;48.868;10.730;2023-07-31T14:02:55;24.70;99.90
25983;DHT22;13773;48.868;10.730;2023-07-31T14:05:20;24.50;99.90
25983;DHT22;13773;48.868;10.730;2023-07-31T14:07:46;24.80;99.90
25983;DHT22;13773;48.868;10.730;2023-07-31T14:10:12;24.80;99.90
25983;DHT22;13773;48.868;10.730;2023-07-31T14:12:37;24.70;99.90
25983;DHT22;13773;48.868;10.730;2023-07-31T14:15:03;24.70;99.90
25983;DHT22;13773;48.868;10.730;2023-07-31T14:17:29;24.60;99.90
25983;DHT22;13773;48.868;10.730;2023-07-31T14:19:55;24.60;99.90
25983;DHT22;13773;48.868;10.730;2023-07-31T14:22:30;24.60;99.90
25983;DHT22;13773;48.868;10.730;2023-07-31T14:24:56;24.50;99.90
25983;DHT22;13773;48.868;10.730;2023-07-31T14:27:22;24.60;99.90
25983;DHT22;13773;48.868;10.730;2023-07-31T14:29:47;24.30;99.90
25983;DHT22;13773;48.868;10.730;2023-07-31T14:32:13;24.30;99.90
25983;DHT22;13773;48.868;10.730;2023-07-31T14:34:38;24.20;99.90
25983;DHT22;13773;48.868;10.730;2023-07-31T14:37:04;24.10;99.90
25983;DHT22;13773;48.868;10.730;2023-07-31T14:39:30;24.00;99.90
25983;DHT22;13773;48.868;10.730;2023-07-31T14:41:56;23.70;99.90
25983;DHT22;13773;48.868;10.730;2023-07-31T14:44:22;23.50;99.90
25983;DHT22;13773;48.868;10.730;2023-07-31T14:46:47;23.50;99.90
25983;DHT22;13773;48.868;10.730;2023-07-31T14:49:14;23.40;99.90
25983;DHT22;13773;48.868;10.730;2023-07-31T14:51:40;23.50;99.90
25983;DHT22;13773;48.868;10.730;2023-07-31T14:54:05;23.50;99.90
25983;DHT22;13773;48.868;10.730;2023-07-31T14:56:31;23.40;99.90
25983;DHT22;13773;48.868;10.730;2023-07-31T14:58:57;23.20;99.90
25983;DHT22;13773;48.868;10.730;2023-07-31T15:01:23;22.90;99.90
25983;DHT22;13773;48.868;10.730;2023-07-31T15:03:49;22.60;99.90
25983;DHT22;13773;48.868;10.730;2023-07-31T15:06:14;22.50;99.90
25983;DHT22;13773;48.868;10.730;2023-07-31T15:08:40;22.50;99.90
25983;DHT22;13773;48.868;10.730;2023-07-31T15:11:09;22.50;99.90
25983;DHT22;13773;48.868;10.730;2023-07-31T15:13:34;22.50;99.90
25983;DHT22;13773;48.868;10.730;2023-07-31T15:16:00;22.30;99.90
25983;DHT22;13773;48.868;10.730;2023-07-31T15:18:26;22.20;99.90
25983;DHT22;13773;48.868;10.730;2023-07-31T15:20:51;22.20;99.90
25983;DHT22;13773;48.868;10.730;2023-07-31T15:23:17;22.20;99.90
25983;DHT22;13773;48.868;10.730;2023-07-31T15:25:43;22.20;99.90
25983;DHT22;13773;48.868;10.730;2023-07-31T15:28:09;22.30;99.90
25983;DHT22;13773;48.868;10.730;2023-07-31T15:30:36;22.40;99.90
25983;DHT22;13773;48.868;10.730;2023-07-31T15:33:03;22.30;99.90
25983;DHT22;13773;48.868;10.730;2023-07-31T15:35:29;22.40;99.90
25983;DHT22;13773;48.868;10.730;2023-07-31T15:37:54;22.40;99.90
25983;DHT22;13773;48.868;10.730;2023-07-31T15:40:20;22.40;99.90
25983;DHT22;13773;48.868;10.730;2023-07-31T15:42:46;22.50;99.90